Time;durP1;ratioP1;P1;durP2;ratioP2;P2;SDS_P1;SDS_P2;PMS_P1;PMS_P2;Temp;Humidity;BMP_temperature;BMP_pressure;BME280_temperature;BME280_humidity;BME280_pressure;Samples;Min_cycle;Max_cycle;Signal;HPM_P1;HPM_P2
2022/03/20 00:00:13;;;;;;;17.02;10.23;;;;;;;-5.47;72.59;94996.53;5011687;28;20054;-84
2022/03/20 00:02:41;;;;;;;13.95;7.75;;;;;;;-5.62;71.36;94993.03;5011491;28;20128;-84
2022/03/20 00:05:09;;;;;;;13.45;8.20;;;;;;;-5.63;71.54;94992.22;5011475;28;20494;-84
2022/03/20 00:07:38;;;;;;;15.77;8.50;;;;;;;-5.54;72.94;94992.69;5011311;28;20092;-84
2022/03/20 00:10:06;;;;;;;13.13;7.75;;;;;;;-5.64;73.78;94994.78;5011165;28;20045;-84
2022/03/20 00:12:32;;;;;;;17.73;9.80;;;;;;;-5.55;73.13;95001.09;5011300;28;20552;-84
2022/03/20 00:14:59;;;;;;;18.83;10.98;;;;;;;-5.52;72.55;94990.91;5009827;28;20422;-84
2022/03/20 00:17:27;;;;;;;14.48;9.50;;;;;;;-5.47;72.94;94995.75;5011434;28;20049;-84
2022/03/20 00:19:54;;;;;;;21.20;11.07;;;;;;;-5.59;71.71;95002.09;5011164;28;20050;-84
2022/03/20 00:22:21;;;;;;;19.58;11.20;;;;;;;-5.60;70.94;95005.47;5011066;28;20054;-84
2022/03/20 00:24:48;;;;;;;17.67;10.40;;;;;;;-5.69;73.29;94979.16;5011138;28;20062;-84
2022/03/20 00:27:16;;;;;;;22.67;12.68;;;;;;;-5.61;73.14;94994.63;5011346;28;20138;-84
2022/03/20 00:29:42;;;;;;;16.88;10.00;;;;;;;-5.63;74.00;94992.22;5011186;28;20411;-84
2022/03/20 00:32:11;;;;;;;18.10;10.77;;;;;;;-5.67;73.38;94984.91;5011018;28;20489;-84
2022/03/20 00:34:40;;;;;;;16.08;10.05;;;;;;;-5.87;72.31;94965.72;5011027;28;20057;-83
2022/03/20 00:37:08;;;;;;;17.70;10.02;;;;;;;-5.71;73.40;95001.75;5010821;28;20104;-84
2022/03/20 00:39:36;;;;;;;20.73;11.77;;;;;;;-5.83;73.07;94995.56;5011170;28;20111;-84
2022/03/20 00:42:04;;;;;;;22.73;12.38;;;;;;;-5.83;73.78;94995.56;5011139;28;20046;-84
2022/03/20 00:44:31;;;;;;;22.48;13.23;;;;;;;-5.86;74.54;94999.88;5010790;28;20414;-84
2022/03/20 00:46:58;;;;;;;22.80;13.07;;;;;;;-6.01;74.51;94982.16;5011008;28;20042;-84
2022/03/20 00:49:24;;;;;;;23.20;13.02;;;;;;;-5.91;74.20;95000.09;5010989;28;20072;-84
2022/03/20 00:51:53;;;;;;;19.15;12.32;;;;;;;-5.96;74.42;94990.28;5011079;28;20104;-84
2022/03/20 00:54:19;;;;;;;17.33;10.05;;;;;;;-5.96;74.02;94994.47;5010787;28;20490;-84
2022/03/20 00:56:47;;;;;;;16.80;10.75;;;;;;;-6.02;74.04;94995.53;5011010;28;20056;-84
2022/03/20 00:59:14;;;;;;;21.45;12.15;;;;;;;-6.02;74.34;94999.75;5010826;28;20128;-84
2022/03/20 01:01:42;;;;;;;22.50;12.18;;;;;;;-6.13;74.81;94988.50;5010613;28;20050;-84
2022/03/20 01:04:10;;;;;;;19.25;11.20;;;;;;;-6.11;74.33;94988.44;5010593;28;20069;-84
2022/03/20 01:06:37;;;;;;;19.88;11.43;;;;;;;-6.26;74.76;94974.91;5010980;28;20046;-84
2022/03/20 01:09:05;;;;;;;22.40;13.68;;;;;;;-6.26;74.89;94968.19;5010788;28;20070;-84
2022/03/20 01:11:34;;;;;;;22.67;13.02;;;;;;;-6.32;74.47;94966.75;5010828;28;20489;-84
2022/03/20 01:14:01;;;;;;;22.35;14.45;;;;;;;-6.40;75.30;94981.25;5010574;28;20528;-84
2022/03/20 01:16:27;;;;;;;32.42;18.83;;;;;;;-6.47;76.00;94973.19;5010658;28;20053;-84
2022/03/20 01:18:54;;;;;;;31.98;18.60;;;;;;;-6.51;77.47;94978.38;5010379;28;20049;-84
2022/03/20 01:21:21;;;;;;;26.55;16.05;;;;;;;-6.48;77.74;94986.56;5010555;28;20056;-84
2022/03/20 01:23:48;;;;;;;24.15;15.40;;;;;;;-6.57;77.73;94979.44;5010796;28;20046;-84
2022/03/20 01:26:17;;;;;;;21.73;13.23;;;;;;;-6.54;78.47;94996.81;5010490;28;20510;-84
2022/03/20 01:28:44;;;;;;;16.67;9.95;;;;;;;-6.61;77.64;94995.44;5010674;28;20050;-84
2022/03/20 01:31:11;;;;;;;16.33;10.50;;;;;;;-6.56;78.63;94988.56;5010419;28;20038;-84
2022/03/20 01:33:38;;;;;;;15.25;10.57;;;;;;;-6.51;77.97;94980.88;5010867;28;20392;-84
2022/03/20 01:36:05;;;;;;;14.90;9.13;;;;;;;-6.57;77.42;94969.44;5010616;28;20046;-84
2022/03/20 01:38:32;;;;;;;14.73;8.35;;;;;;;-6.56;77.05;94986.06;5010418;28;20053;-84
2022/03/20 01:41:00;;;;;;;13.52;8.95;;;;;;;-6.53;78.02;94983.44;5010635;28;20049;-84
2022/03/20 01:43:28;;;;;;;16.00;10.75;;;;;;;-6.46;78.12;94982.31;5010421;28;20133;-83
2022/03/20 01:45:55;;;;;;;12.25;8.95;;;;;;;-6.44;77.13;94977.25;5010234;28;20050;-84
2022/03/20 01:48:22;;;;;;;13.75;9.38;;;;;;;-6.58;78.05;94958.63;5010379;28;20057;-84
2022/03/20 01:50:49;;;;;;;18.30;11.20;;;;;;;-6.48;77.11;94980.75;5010477;28;20050;-84
2022/03/20 01:53:19;;;;;;;18.80;11.30;;;;;;;-6.51;76.91;94986.69;5010182;28;20064;-84
2022/03/20 01:55:46;;;;;;;19.52;11.60;;;;;;;-6.64;77.92;94980.53;5010790;28;20042;-85
2022/03/20 01:58:15;;;;;;;15.55;9.05;;;;;;;-6.63;77.81;94988.00;5013800;28;20086;-84
2022/03/20 02:00:43;;;;;;;12.85;7.95;;;;;;;-6.60;77.62;94989.56;5013707;28;20061;-84
2022/03/20 02:03:09;;;;;;;15.23;9.52;;;;;;;-6.65;77.42;94989.75;5013736;28;20054;-84
2022/03/20 02:05:37;;;;;;;14.48;9.98;;;;;;;-6.67;77.47;94993.97;5013638;28;20046;-84
2022/03/20 02:08:05;;;;;;;15.40;9.25;;;;;;;-6.67;77.50;94985.69;5013655;28;20050;-84
2022/03/20 02:10:36;;;;;;;15.57;10.50;;;;;;;-6.69;78.51;94989.91;5013620;28;20064;-84
2022/03/20 02:13:03;;;;;;;17.25;10.95;;;;;;;-6.69;78.51;94983.25;5013456;28;20054;-84
2022/03/20 02:15:30;;;;;;;21.60;12.73;;;;;;;-6.72;78.60;94995.84;5013679;28;20056;-84
2022/03/20 02:17:58;;;;;;;18.05;11.18;;;;;;;-6.86;78.89;94981.38;5013574;28;20391;-85
2022/03/20 02:20:25;;;;;;;21.45;12.35;;;;;;;-6.78;79.94;94984.41;5013452;28;20049;-85
2022/03/20 02:22:53;;;;;;;26.05;16.02;;;;;;;-6.81;79.65;94987.00;5013178;28;20574;-84
2022/03/20 02:25:20;;;;;;;25.27;15.30;;;;;;;-7.08;80.33;94938.94;5013380;28;20072;-85
2022/03/20 02:27:48;;;;;;;25.50;15.98;;;;;;;-6.80;79.74;94983.66;5013342;28;20171;-85
2022/03/20 02:30:16;;;;;;;25.38;15.15;;;;;;;-6.79;80.12;94980.28;5013396;28;20417;-86
2022/03/20 02:32:44;;;;;;;22.98;14.00;;;;;;;-6.75;80.37;94978.47;5013442;28;20050;-84
2022/03/20 02:35:14;;;;;;;26.13;13.98;;;;;;;-6.82;80.29;94974.59;5013192;28;20049;-85
2022/03/20 02:37:41;;;;;;;18.70;11.70;;;;;;;-6.77;80.64;94981.03;5013009;28;20049;-85
2022/03/20 02:40:11;;;;;;;18.52;11.77;;;;;;;-6.79;80.79;94972.78;5012915;28;20052;-85
2022/03/20 02:42:40;;;;;;;17.55;10.70;;;;;;;-6.78;80.43;94964.41;5013258;28;20053;-85
2022/03/20 02:45:09;;;;;;;17.20;11.00;;;;;;;-6.77;80.70;94962.75;5012977;28;20046;-85
2022/03/20 02:47:38;;;;;;;19.13;11.13;;;;;;;-6.74;80.89;94972.59;5012893;28;20042;-85
2022/03/20 02:50:07;;;;;;;17.25;10.27;;;;;;;-6.72;80.29;94975.84;5012954;28;20505;-85
2022/03/20 02:52:45;;;;;;;15.70;9.50;;;;;;;-6.76;79.82;94979.34;5012684;28;20052;-84
2022/03/20 02:55:15;;;;;;;12.90;8.15;;;;;;;-6.83;79.61;94973.78;5012917;28;20046;-85
2022/03/20 02:57:42;;;;;;;14.32;8.88;;;;;;;-6.88;79.64;94966.47;5012724;28;20465;-85
2022/03/20 03:00:10;;;;;;;14.07;8.20;;;;;;;-6.98;79.64;94961.00;5012366;28;20509;-85
2022/03/20 03:02:43;;;;;;;14.63;9.00;;;;;;;-6.97;80.13;94956.81;5012492;28;20129;-84
2022/03/20 03:05:11;;;;;;;16.75;9.88;;;;;;;-6.90;80.28;94970.69;5012439;28;20049;-84
2022/03/20 03:13:08;;;;;;;16.77;10.43;;;;;;;-6.94;81.10;94973.38;5012420;28;20574;-84
2022/03/20 03:15:34;;;;;;;15.93;10.68;;;;;;;-7.10;82.03;94973.97;5012194;28;20052;-84
2022/03/20 03:18:01;;;;;;;15.88;10.57;;;;;;;-7.09;81.31;94984.78;5012574;28;20050;-84
2022/03/20 03:20:28;;;;;;;13.55;8.70;;;;;;;-7.17;81.25;94972.56;5012243;28;20052;-84
2022/03/20 03:22:55;;;;;;;18.45;9.60;;;;;;;-7.09;81.45;94987.28;5012169;28;20050;-84
2022/03/20 03:25:24;;;;;;;18.65;12.07;;;;;;;-7.33;81.32;94960.66;5012177;28;20049;-84
2022/03/20 03:27:51;;;;;;;18.58;12.18;;;;;;;-7.20;80.79;94985.16;5012044;28;20077;-85
2022/03/20 03:30:18;;;;;;;18.55;11.07;;;;;;;-7.28;81.96;94987.94;5012046;28;20453;-84
2022/03/20 03:32:45;;;;;;;15.57;10.30;;;;;;;-7.29;81.90;94986.31;5012246;28;20104;-84
2022/03/20 03:37:58;;;;;;;13.18;8.73;;;;;;;-7.43;83.44;94981.84;5012114;28;20058;-84
2022/03/20 03:40:26;;;;;;;15.77;9.48;;;;;;;-7.29;82.54;94988.81;5011780;28;20046;-85
2022/03/20 03:42:53;;;;;;;15.70;8.93;;;;;;;-7.27;82.59;94987.91;5012270;28;20042;-84
2022/03/20 03:45:22;;;;;;;16.50;9.60;;;;;;;-7.29;81.96;94988.81;5011860;28;20049;-84
2022/03/20 03:47:50;;;;;;;14.07;9.80;;;;;;;-7.29;82.06;94989.66;5011805;28;20593;-84
2022/03/20 03:50:16;;;;;;;14.98;10.20;;;;;;;-7.25;81.65;94991.16;5011705;28;20054;-84
2022/03/20 03:52:43;;;;;;;13.48;8.57;;;;;;;-7.27;81.44;94982.09;5011722;28;20049;-85
2022/03/20 03:55:10;;;;;;;13.35;9.02;;;;;;;-7.44;82.03;94977.72;5011436;28;20049;-85
2022/03/20 03:57:43;;;;;;;13.70;8.70;;;;;;;-7.32;82.00;94993.94;5011762;28;20056;-85
2022/03/20 04:00:11;;;;;;;13.27;8.98;;;;;;;-7.41;82.04;94990.09;5011489;28;20049;-84
2022/03/20 04:02:37;;;;;;;16.23;10.25;;;;;;;-7.40;82.47;94994.22;5011588;28;20075;-85
2022/03/20 04:05:05;;;;;;;15.15;9.18;;;;;;;-7.43;83.08;94981.84;5011504;28;20053;-85
2022/03/20 04:07:32;;;;;;;17.27;10.48;;;;;;;-7.44;82.76;94977.72;5011246;28;20049;-85
2022/03/20 04:09:59;;;;;;;14.05;9.05;;;;;;;-7.45;82.78;94986.09;5011632;28;20051;-85
2022/03/20 04:12:25;;;;;;;16.33;11.10;;;;;;;-7.46;82.42;95002.72;5011708;28;20046;-85
2022/03/20 04:14:53;;;;;;;17.42;12.48;;;;;;;-7.54;83.30;94997.22;5011358;28;20115;-84
2022/03/20 04:17:20;;;;;;;15.18;10.57;;;;;;;-7.50;83.87;94993.75;5011475;28;20057;-84
2022/03/20 04:19:47;;;;;;;17.40;10.85;;;;;;;-7.46;84.19;94997.75;5010938;28;20402;-85
2022/03/20 04:22:15;;;;;;;16.73;10.70;;;;;;;-7.63;83.64;94962.59;5011179;28;20050;-84
2022/03/20 04:24:41;;;;;;;18.25;11.45;;;;;;;-7.53;83.54;94993.84;5011401;28;20053;-84
2022/03/20 04:27:11;;;;;;;24.05;15.38;;;;;;;-7.46;82.93;95004.44;5011195;28;20544;-84
2022/03/20 04:29:38;;;;;;;28.13;17.20;;;;;;;-7.50;84.27;95001.25;5011005;28;20049;-84
2022/03/20 04:32:08;;;;;;;43.33;23.10;;;;;;;-7.46;83.78;94996.94;5011114;28;20046;-84
2022/03/20 04:34:35;;;;;;;42.53;21.20;;;;;;;-7.44;84.35;94996.03;5010916;28;20061;-85
2022/03/20 04:37:04;;;;;;;39.17;20.65;;;;;;;-7.47;85.02;94980.31;5011247;28;20584;-84
2022/03/20 04:39:31;;;;;;;40.55;21.40;;;;;;;-7.48;85.47;94997.00;5011049;28;20096;-85
2022/03/20 04:41:58;;;;;;;49.33;24.30;;;;;;;-7.87;87.54;94995.03;5011129;28;20049;-84
2022/03/20 04:44:25;;;;;;;43.75;21.92;;;;;;;-7.78;87.27;94994.72;5010909;28;20498;-84
2022/03/20 04:46:52;;;;;;;36.20;20.58;;;;;;;-7.71;86.94;95007.78;5010929;28;20053;-84
2022/03/20 05:00:20;;;;;;;23.67;14.60;;;;;;;-7.41;85.21;94992.59;5010841;28;20097;-84
2022/03/20 05:02:47;;;;;;;21.52;13.52;;;;;;;-7.44;85.72;95007.69;5010787;28;20057;-85
2022/03/20 05:05:16;;;;;;;26.05;14.02;;;;;;;-7.33;85.29;94995.63;5011079;28;20054;-84
2022/03/20 05:07:43;;;;;;;26.10;16.20;;;;;;;-7.24;85.33;95001.94;5010775;28;20163;-85
2022/03/20 05:15:40;;;;;;;19.15;12.63;;;;;;;-7.17;84.89;94980.06;5010742;28;20107;-84
2022/03/20 05:18:07;;;;;;;21.85;14.63;;;;;;;-6.96;85.27;95000.13;5010828;28;20050;-85
2022/03/20 05:20:35;;;;;;;27.85;16.08;;;;;;;-6.74;84.11;95005.91;5010617;28;20463;-85
2022/03/20 05:23:02;;;;;;;94.30;46.67;;;;;;;-6.67;83.52;94998.19;5010249;28;20438;-85
2022/03/20 05:28:14;;;;;;;62.47;33.60;;;;;;;-6.49;82.11;95009.16;5010156;28;20065;-84
2022/03/20 05:30:42;;;;;;;61.60;32.53;;;;;;;-6.38;82.64;95012.03;5010427;28;20054;-84
2022/03/20 05:33:10;;;;;;;57.22;30.70;;;;;;;-6.44;82.52;95008.06;5013912;28;20474;-85
2022/03/20 05:35:39;;;;;;;50.55;28.98;;;;;;;-6.22;82.33;95009.72;5009691;28;20049;-84
2022/03/20 05:38:08;;;;;;;47.25;26.52;;;;;;;-6.13;82.89;95010.19;5013236;28;20046;-85
2022/03/20 05:40:36;;;;;;;43.92;25.88;;;;;;;-5.99;82.12;95012.91;5014101;28;20133;-85
2022/03/20 05:43:03;;;;;;;44.58;27.30;;;;;;;-5.85;81.37;95007.34;5014359;28;20076;-85
2022/03/20 05:45:31;;;;;;;46.53;27.25;;;;;;;-5.68;81.52;95011.63;5014308;28;20109;-85
2022/03/20 05:47:58;;;;;;;37.55;21.23;;;;;;;-5.50;80.33;95007.50;5014059;28;20153;-85
2022/03/20 05:50:25;;;;;;;16.38;10.25;;;;;;;-5.32;77.00;95000.09;5014677;28;20491;-85
2022/03/20 05:52:53;;;;;;;17.27;10.13;;;;;;;-5.26;78.18;94973.94;5012216;28;20399;-85
2022/03/20 05:58:01;;;;;;;18.67;11.80;;;;;;;-4.81;76.49;95012.03;5014058;28;20054;-85
2022/03/20 05:58:11;;;;;;;12.90;7.82;;;;;;;-4.58;73.26;95015.16;5014109;28;20065;-84
2022/03/20 06:00:40;;;;;;;15.45;10.00;;;;;;;-4.50;73.32;94997.22;5013742;28;20112;-84
2022/03/20 06:03:07;;;;;;;19.90;11.80;;;;;;;-4.54;72.53;94984.00;5013770;28;20494;-85
2022/03/20 06:05:34;;;;;;;26.10;12.43;;;;;;;-4.41;71.21;95011.03;5013789;28;20049;-85
2022/03/20 06:08:02;;;;;;;17.33;8.95;;;;;;;-4.44;69.55;95014.50;5013773;28;20042;-85
2022/03/20 06:10:30;;;;;;;14.38;8.38;;;;;;;-4.23;68.72;95016.84;5013541;28;20417;-85
2022/03/20 06:12:59;;;;;;;12.40;7.57;;;;;;;-4.26;67.67;95024.53;5013523;28;20050;-86
2022/03/20 06:15:25;;;;;;;22.48;13.45;;;;;;;-4.17;67.41;95009.03;5014176;28;20050;-85
2022/03/20 06:17:52;;;;;;;15.27;8.93;;;;;;;-3.96;66.60;95017.22;5013807;28;20100;-85
2022/03/20 06:20:19;;;;;;;12.73;8.25;;;;;;;-3.89;66.26;95017.72;5013612;28;20553;-85
2022/03/20 06:22:49;;;;;;;23.70;14.35;;;;;;;-3.69;65.38;95021.75;5013387;28;20486;-86
2022/03/20 06:25:29;;;;;;;11.50;6.95;;;;;;;-4.10;63.20;94966.88;5018459;28;20137;-88
2022/03/20 06:27:58;;;;;;;14.05;8.85;;;;;;;-3.59;65.15;95023.78;5013588;28;20128;-86
2022/03/20 06:30:25;;;;;;;15.20;8.88;;;;;;;-3.63;63.62;95013.06;5013254;28;20052;-85
2022/03/20 06:32:53;;;;;;;15.02;8.32;;;;;;;-3.29;63.91;95028.13;5013327;28;20131;-85
2022/03/20 06:35:19;;;;;;;17.20;9.50;;;;;;;-3.28;63.12;95033.06;5012942;28;20133;-85
2022/03/20 06:37:49;;;;;;;15.35;9.40;;;;;;;-3.16;62.38;95018.25;5013468;28;20108;-84
2022/03/20 06:40:18;;;;;;;14.32;7.32;;;;;;;-3.22;61.03;95017.69;5013259;28;20105;-87
2022/03/20 06:42:45;;;;;;;14.80;8.38;;;;;;;-3.14;61.16;95039.09;5012759;28;20056;-88
2022/03/20 06:45:13;;;;;;;13.43;7.57;;;;;;;-2.93;61.65;95034.63;5013056;28;20100;-86
2022/03/20 06:47:42;;;;;;;11.38;6.38;;;;;;;-2.69;59.76;95021.63;5013566;28;20058;-84
2022/03/20 06:50:10;;;;;;;19.15;10.13;;;;;;;-2.83;59.74;95030.72;5012739;28;20046;-85
2022/03/20 06:52:38;;;;;;;21.92;10.85;;;;;;;-2.85;59.89;95036.72;5012980;28;20050;-85
2022/03/20 06:55:07;;;;;;;20.45;10.57;;;;;;;-2.77;60.46;95018.72;5013105;28;20056;-85
2022/03/20 06:57:36;;;;;;;10.13;7.00;;;;;;;-2.58;58.82;95016.03;5012888;28;20490;-83
2022/03/20 07:00:06;;;;;;;12.15;6.88;;;;;;;-2.32;58.16;95034.72;5012657;28;20092;-85
2022/03/20 07:02:33;;;;;;;13.40;7.68;;;;;;;-2.49;57.83;95012.19;5012939;28;20046;-85
2022/03/20 07:05:00;;;;;;;12.60;7.10;;;;;;;-2.16;56.96;95022.06;5012610;28;20469;-85
2022/03/20 07:07:27;;;;;;;15.23;9.07;;;;;;;-2.41;57.15;95027.66;5012681;28;20407;-84
2022/03/20 07:09:54;;;;;;;16.92;9.15;;;;;;;-2.21;57.54;95031.59;5012398;28;20046;-83
2022/03/20 07:12:21;;;;;;;21.17;10.63;;;;;;;-2.11;57.57;95028.56;5012938;28;20403;-83
2022/03/20 07:14:50;;;;;;;15.75;9.35;;;;;;;-1.88;56.89;95027.25;5012488;28;20050;-86
2022/03/20 07:17:20;;;;;;;14.30;7.97;;;;;;;-2.09;56.71;95007.44;5012546;28;20096;-86
2022/03/20 07:19:49;;;;;;;12.70;7.82;;;;;;;-2.18;56.26;95013.00;5012708;28;20041;-86
2022/03/20 07:22:18;;;;;;;12.40;7.53;;;;;;;-2.09;55.85;95020.00;5012418;28;20049;-84
2022/03/20 07:24:47;;;;;;;13.50;7.38;;;;;;;-2.18;56.12;95007.97;5012221;28;20046;-88
2022/03/20 07:30:00;;;;;;;12.90;7.87;;;;;;;-2.32;56.66;95033.91;5012121;28;20053;-83
2022/03/20 07:32:29;;;;;;;12.77;8.07;;;;;;;-2.31;57.04;95038.03;5012827;28;20455;-90
2022/03/20 07:34:56;;;;;;;11.68;7.20;;;;;;;-2.22;55.80;95024.94;5012048;28;20058;-85
2022/03/20 07:37:22;;;;;;;13.38;7.18;;;;;;;-2.21;54.98;95040.84;5015131;28;20045;-85
2022/03/20 07:39:51;;;;;;;11.75;7.45;;;;;;;-2.27;54.25;94981.56;5014103;28;20581;-85
2022/03/20 07:42:20;;;;;;;15.45;7.70;;;;;;;-2.12;54.74;94990.00;5015685;28;21481;-84
2022/03/20 07:44:47;;;;;;;13.27;7.40;;;;;;;-1.68;54.28;95025.28;5012950;28;20046;-83
2022/03/20 07:47:20;;;;;;;15.70;8.32;;;;;;;-1.66;51.72;95014.22;5012080;28;20056;-82
2022/03/20 07:49:47;;;;;;;10.93;6.88;;;;;;;-1.78;52.39;95042.66;5011823;28;20053;-84
2022/03/20 07:52:14;;;;;;;10.50;6.00;;;;;;;-1.94;52.77;95020.84;5012374;28;20050;-82
2022/03/20 07:54:44;;;;;;;38.15;17.90;;;;;;;-2.21;53.52;94966.16;5010932;28;20424;-85
2022/03/20 07:57:25;;;;;;;;;;;;;;;;;;;;;
2022/03/20 08:06:40;;;;;;;16.63;9.65;;;;;;;-1.43;51.45;94994.41;4969779;28;20049;-84
2022/03/20 08:12:26;;;;;;;11.18;6.93;;;;;;;-1.45;50.42;95023.16;4997006;28;20108;-84
2022/03/20 08:15:12;;;;;;;;;;;;;;;;;;;;;
2022/03/20 08:17:56;;;;;;;14.95;7.72;;;;;;;-1.90;51.50;94984.50;5005906;28;20054;-90
2022/03/20 08:20:23;;;;;;;10.77;7.32;;;;;;;-2.14;51.01;94966.59;5010493;28;20050;-88
2022/03/20 08:26:37;;;;;;;11.80;6.90;;;;;;;-1.88;50.72;94941.63;5001212;28;20478;-89
2022/03/20 08:29:26;;;;;;;10.23;5.95;;;;;;;-2.14;48.67;94875.94;5012508;28;20519;-83
2022/03/20 08:32:01;;;;;;;10.25;5.95;;;;;;;-1.14;48.84;95014.56;5003383;28;20520;-85
2022/03/20 08:35:19;;;;;;;11.82;6.95;;;;;;;-1.97;49.10;94869.09;5010945;28;20049;-88
2022/03/20 08:38:05;;;;;;;13.57;6.50;;;;;;;-1.30;47.13;94963.44;4955170;28;20047;-88
2022/03/20 08:40:35;;;;;;;9.68;5.55;;;;;;;-1.08;47.75;95004.09;5012410;28;20474;-91
2022/03/20 08:43:09;;;;;;;10.80;5.85;;;;;;;-1.19;47.42;94988.81;5011591;28;20129;-86
2022/03/20 08:49:12;;;;;;;12.02;7.25;;;;;;;-1.42;46.98;94839.75;5002702;28;20821;-88
2022/03/20 08:51:43;;;;;;;62.33;32.58;;;;;;;-1.14;47.15;94933.03;5001851;28;20050;-84
2022/03/20 08:54:11;;;;;;;58.92;31.10;;;;;;;-0.64;47.42;94966.13;5011085;28;20050;-90
2022/03/20 08:56:41;;;;;;;19.25;12.98;;;;;;;-0.53;46.01;94973.00;5011151;28;20045;-90
2022/03/20 09:02:22;;;;;;;10.80;6.07;;;;;;;-0.11;44.41;94999.81;4889477;29;20059;-89
2022/03/20 09:04:51;;;;;;;10.70;4.70;;;;;;;-1.21;44.19;94862.81;4960722;28;20077;-88
2022/03/20 09:07:19;;;;;;;9.48;5.72;;;;;;;-0.07;44.61;94988.63;4995318;28;20104;-87
2022/03/20 09:09:46;;;;;;;8.57;5.63;;;;;;;-0.13;42.90;94989.84;4995137;28;20050;-84
2022/03/20 09:12:16;;;;;;;14.20;8.07;;;;;;;-0.31;43.63;94981.72;4995178;28;20057;-85
2022/03/20 09:15:07;;;;;;;9.52;6.13;;;;;;;-0.45;43.78;94904.34;4995143;28;20133;-93
2022/03/20 09:20:37;;;;;;;;;;;;;;;;;;;;;
2022/03/20 09:23:05;;;;;;;11.82;6.57;;;;;;;0.12;44.12;94966.31;4996074;28;20054;-85
2022/03/20 09:25:32;;;;;;;11.88;7.03;;;;;;;0.02;44.67;94962.75;4994914;28;20054;-88
2022/03/20 09:28:04;;;;;;;11.10;7.35;;;;;;;0.12;45.31;94966.31;4994849;28;20054;-84
2022/03/20 09:30:37;;;;;;;12.32;7.25;;;;;;;0.35;44.30;94942.91;4994561;28;20046;-91
2022/03/20 09:33:05;;;;;;;12.05;6.35;;;;;;;0.17;44.03;94960.94;4994618;28;20046;-90
2022/03/20 09:35:34;;;;;;;10.88;6.35;;;;;;;0.41;41.93;94951.81;4806499;28;5001816;-84
2022/03/20 09:38:06;;;;;;;10.68;6.15;;;;;;;0.39;43.54;94952.75;4995857;28;20085;-90
2022/03/20 09:40:35;;;;;;;8.02;4.35;;;;;;;0.23;41.52;94955.47;4994894;28;20089;-87
2022/03/20 09:43:05;;;;;;;8.02;4.63;;;;;;;0.10;42.36;94927.66;4994302;28;20054;-90
2022/03/20 09:45:34;;;;;;;9.45;4.90;;;;;;;0.64;42.40;94952.75;4994627;28;20057;-91
2022/03/20 09:48:05;;;;;;;8.90;5.75;;;;;;;0.60;42.84;94939.53;4994445;28;20057;-89
2022/03/20 09:50:34;;;;;;;11.27;6.20;;;;;;;0.87;42.24;94948.66;4994588;28;20502;-89
2022/03/20 09:53:05;;;;;;;9.68;5.72;;;;;;;0.62;42.73;94947.00;4994342;28;20065;-89
2022/03/20 09:55:33;;;;;;;8.05;5.18;;;;;;;0.74;42.22;94937.78;4994061;28;20110;-87
2022/03/20 09:58:01;;;;;;;11.07;6.82;;;;;;;0.74;43.38;94941.09;4994422;28;20066;-88
2022/03/20 10:00:30;;;;;;;11.48;7.55;;;;;;;0.73;43.09;94938.69;4999694;28;20064;-85
2022/03/20 10:03:15;;;;;;;12.25;6.78;;;;;;;0.56;42.54;94942.38;5013778;28;20088;-87
2022/03/20 10:05:43;;;;;;;11.93;6.30;;;;;;;0.84;43.62;94932.88;5013600;28;20053;-90
2022/03/20 10:08:17;;;;;;;9.48;6.22;;;;;;;0.55;42.91;94925.59;5013722;28;20050;-86
2022/03/20 10:10:47;;;;;;;10.15;6.35;;;;;;;1.06;42.13;94915.28;5013928;28;20449;-88
2022/03/20 10:13:14;;;;;;;10.60;6.03;;;;;;;1.32;43.08;94916.88;5013728;28;20053;-88
2022/03/20 10:15:43;;;;;;;15.02;8.63;;;;;;;1.38;42.25;94910.56;5013462;28;20054;-90
2022/03/20 10:18:14;;;;;;;12.32;8.15;;;;;;;1.26;41.48;94919.84;5012824;28;20058;-90
2022/03/20 10:20:46;;;;;;;10.75;7.25;;;;;;;1.38;42.30;94918.97;5013500;28;20129;-87
2022/03/20 10:23:30;;;;;;;9.05;5.88;;;;;;;1.50;41.43;94912.22;5013536;28;20133;-89
2022/03/20 10:25:58;;;;;;;9.73;6.88;;;;;;;1.45;41.80;94902.41;5013420;28;20042;-86
2022/03/20 10:28:25;;;;;;;11.48;7.82;;;;;;;1.53;41.21;94908.66;5013193;28;20525;-89
2022/03/20 10:30:58;;;;;;;12.32;7.32;;;;;;;1.67;42.02;94905.13;5013550;28;20057;-90
2022/03/20 10:33:27;;;;;;;10.77;7.53;;;;;;;1.84;41.19;94903.84;5013409;28;20469;-87
2022/03/20 10:36:21;;;;;;;12.23;7.35;;;;;;;1.85;40.66;94890.28;5013275;28;20088;-90
2022/03/20 10:38:49;;;;;;;10.50;7.10;;;;;;;1.78;40.49;94897.53;5011447;28;20054;-86
2022/03/20 10:41:45;;;;;;;13.85;7.63;;;;;;;1.66;40.88;94883.25;5012991;28;20045;-92
2022/03/20 10:47:10;;;;;;;12.15;7.07;;;;;;;1.86;41.41;94886.84;5012974;28;20513;-89
2022/03/20 10:49:40;;;;;;;14.00;8.60;;;;;;;2.11;40.52;94874.84;5012849;28;20058;-85
2022/03/20 10:52:18;;;;;;;11.30;6.90;;;;;;;1.79;39.95;94866.19;5013182;28;20042;-85
2022/03/20 10:54:55;;;;;;;17.58;10.88;;;;;;;2.02;39.80;94875.53;5012907;28;20116;-89
2022/03/20 10:57:34;;;;;;;8.40;5.47;;;;;;;2.15;39.89;94873.69;5012845;28;20049;-89
2022/03/20 11:00:05;;;;;;;10.43;6.72;;;;;;;2.53;39.92;94864.88;5012556;28;20053;-87
2022/03/20 11:02:44;;;;;;;9.38;5.60;;;;;;;2.06;38.82;94829.56;5012875;28;20132;-86
2022/03/20 11:05:12;;;;;;;10.40;6.10;;;;;;;2.16;39.35;94849.16;5012616;28;20545;-84
2022/03/20 11:07:44;;;;;;;11.60;5.97;;;;;;;2.57;39.58;94870.53;5012677;28;20049;-87
2022/03/20 11:10:14;;;;;;;9.05;5.75;;;;;;;2.23;38.82;94847.75;5012478;28;20053;-87
2022/03/20 11:12:48;;;;;;;11.23;6.15;;;;;;;2.30;38.09;94855.72;5012261;28;20057;-85
2022/03/20 11:15:18;;;;;;;8.32;4.95;;;;;;;2.53;38.60;94849.66;5012644;28;20050;-88
2022/03/20 11:17:49;;;;;;;10.57;6.05;;;;;;;2.52;38.89;94848.06;5012496;28;20136;-85
2022/03/20 11:20:20;;;;;;;9.25;5.53;;;;;;;2.81;37.92;94859.38;5012393;28;20050;-90
2022/03/20 11:22:49;;;;;;;11.90;8.40;;;;;;;2.40;37.48;94854.06;5012425;28;20057;-87
2022/03/20 11:25:35;;;;;;;10.88;7.45;;;;;;;2.54;38.14;94830.16;5012243;28;20534;-87
2022/03/20 11:28:11;;;;;;;14.98;9.45;;;;;;;2.63;38.13;94838.78;5011346;28;20570;-90
2022/03/20 11:30:40;;;;;;;11.52;8.20;;;;;;;2.78;37.84;94844.41;5012089;28;20061;-81
2022/03/20 11:33:10;;;;;;;7.85;5.20;;;;;;;2.37;37.30;94844.16;5012182;28;20120;-88
2022/03/20 11:35:39;;;;;;;10.52;7.43;;;;;;;2.49;38.97;94820.38;5012308;28;20053;-88
2022/03/20 11:38:18;;;;;;;9.50;7.05;;;;;;;2.42;39.22;94767.72;5011834;28;20049;-84
2022/03/20 11:41:22;;;;;;;11.98;7.47;;;;;;;2.91;39.12;94834.06;5012020;28;20053;-87
2022/03/20 11:44:18;;;;;;;8.15;5.38;;;;;;;2.78;38.74;94827.44;4932583;29;20048;-90
2022/03/20 11:46:50;;;;;;;7.53;5.22;;;;;;;2.74;37.25;94827.81;4951513;29;20058;-87
2022/03/20 11:49:50;;;;;;;9.77;4.95;;;;;;;2.44;37.45;94816.59;4993701;28;20464;-87
2022/03/20 11:52:21;;;;;;;15.48;9.07;;;;;;;2.59;38.18;94802.69;5011686;28;20054;-86
2022/03/20 11:54:57;;;;;;;16.02;10.43;;;;;;;2.48;38.72;94795.94;5011769;28;20054;-87
2022/03/20 11:57:48;;;;;;;16.27;9.32;;;;;;;2.65;37.43;94804.75;5011748;28;20088;-89
2022/03/20 12:00:18;;;;;;;13.50;9.35;;;;;;;2.70;38.35;94773.16;5011615;28;20367;-91
2022/03/20 12:03:09;;;;;;;9.52;6.32;;;;;;;2.61;37.35;94775.50;5011519;28;20119;-85
2022/03/20 12:06:06;;;;;;;11.65;7.03;;;;;;;2.80;38.33;94779.09;5011683;28;20053;-88
2022/03/20 12:08:46;;;;;;;10.05;6.03;;;;;;;2.92;38.06;94802.72;5011496;28;20068;-86
2022/03/20 12:11:26;;;;;;;12.95;8.30;;;;;;;2.88;37.33;94817.34;5011551;28;20482;-86
2022/03/20 12:14:04;;;;;;;9.65;6.03;;;;;;;2.79;37.32;94818.09;5011693;28;20054;-88
2022/03/20 12:16:54;;;;;;;9.80;6.20;;;;;;;2.79;37.45;94810.50;5011460;28;20058;-85
2022/03/20 12:19:23;;;;;;;13.18;8.80;;;;;;;3.03;37.95;94799.28;5011055;28;20050;-86
2022/03/20 12:21:57;;;;;;;8.77;5.53;;;;;;;3.40;36.72;94818.38;5011505;28;20414;-87
2022/03/20 12:24:55;;;;;;;7.95;5.40;;;;;;;3.47;37.07;94792.34;5011317;28;20041;-87
2022/03/20 12:27:45;;;;;;;20.27;10.80;;;;;;;3.05;36.78;94794.88;5011200;28;20083;-90
2022/03/20 12:30:36;;;;;;;13.18;7.47;;;;;;;3.06;37.36;94783.84;5006750;28;20125;-88
2022/03/20 12:33:30;;;;;;;19.33;10.35;;;;;;;3.04;36.90;94788.22;4987046;28;20506;-82
2022/03/20 12:35:59;;;;;;;20.38;11.15;;;;;;;3.20;36.98;94790.34;4991226;28;20057;-88
2022/03/20 12:38:40;;;;;;;8.88;5.20;;;;;;;2.87;36.30;94748.97;4991759;28;21035;-87
2022/03/20 12:41:11;;;;;;;13.52;8.70;;;;;;;3.48;37.64;94781.25;4991238;28;20061;-89